Time;durP1;ratioP1;P1;durP2;ratioP2;P2;SDS_P1;SDS_P2;PMS_P1;PMS_P2;Temp;Humidity;BMP_temperature;BMP_pressure;BME280_temperature;BME280_humidity;BME280_pressure;Samples;Min_cycle;Max_cycle;Signal;HPM_P1;HPM_P2
2022/12/15 00:38:59;;;;;;;23.65;12.13;;;-3.70;99.90;;;;;;5024139;28;20082;-64
2022/12/15 00:41:24;;;;;;;21.63;11.80;;;-3.70;99.90;;;;;;5025592;28;20029;-64
2022/12/15 00:43:50;;;;;;;20.50;11.25;;;-3.70;99.90;;;;;;5022347;28;20123;-64
2022/12/15 00:49:00;;;;;;;21.27;10.65;;;-3.70;99.90;;;;;;5026293;28;20036;-64
2022/12/15 01:21:40;;;;;;;23.60;12.32;;;-4.00;99.90;;;;;;5024903;28;20492;-63
2022/12/15 01:24:05;;;;;;;21.58;11.55;;;-4.00;99.90;;;;;;5024248;28;20037;-64
2022/12/15 01:26:31;;;;;;;22.27;11.52;;;-4.00;99.90;;;;;;5024738;28;20104;-64
2022/12/15 01:28:56;;;;;;;17.63;9.77;;;-3.90;99.90;;;;;;5024415;28;20080;-64
2022/12/15 01:31:22;;;;;;;15.07;8.07;;;-3.90;99.90;;;;;;5026790;28;20036;-65
2022/12/15 01:33:47;;;;;;;16.35;9.73;;;-3.80;99.90;;;;;;5026155;28;20052;-64
2022/12/15 01:36:13;;;;;;;17.80;8.90;;;-3.80;99.90;;;;;;5029376;28;20094;-63
2022/12/15 01:38:38;;;;;;;14.32;8.38;;;-3.70;99.90;;;;;;5030320;28;20547;-65
2022/12/15 01:41:06;;;;;;;12.77;6.97;;;-3.70;99.90;;;;;;5028656;28;20469;-64
2022/12/15 01:43:35;;;;;;;12.98;7.55;;;-3.70;99.90;;;;;;5028620;28;20014;-64
2022/12/15 01:46:05;;;;;;;13.77;8.13;;;-3.70;99.90;;;;;;5025792;28;20374;-64
2022/12/15 01:48:40;;;;;;;19.02;8.77;;;-3.60;99.90;;;;;;5029043;28;20484;-65
2022/12/15 01:51:36;;;;;;;15.38;8.55;;;-3.60;99.90;;;;;;5029434;28;20116;-63
2022/12/15 01:54:11;;;;;;;20.20;10.70;;;-3.70;99.90;;;;;;5027081;28;20059;-64
2022/12/15 01:56:42;;;;;;;20.02;9.20;;;-3.70;99.90;;;;;;5024602;28;20040;-64
2022/12/15 01:59:13;;;;;;;20.05;10.38;;;-3.70;99.90;;;;;;5029420;28;20022;-64
2022/12/15 02:01:39;;;;;;;21.58;11.45;;;-3.70;99.90;;;;;;5026727;28;20022;-64
2022/12/15 02:04:06;;;;;;;21.52;12.05;;;-3.80;99.90;;;;;;5027691;28;20104;-64
2022/12/15 02:06:31;;;;;;;25.63;12.75;;;-3.80;99.90;;;;;;5028394;28;20580;-64
2022/12/15 02:08:58;;;;;;;25.42;12.60;;;-3.90;99.90;;;;;;5030107;28;20093;-64
2022/12/15 02:11:50;;;;;;;25.80;12.80;;;-4.00;99.90;;;;;;5026626;28;20072;-64
2022/12/15 02:14:35;;;;;;;22.02;11.23;;;-4.00;99.90;;;;;;5028490;28;20018;-64
2022/12/15 02:17:25;;;;;;;17.95;10.30;;;-4.00;99.90;;;;;;5026478;28;20029;-64
2022/12/15 02:20:09;;;;;;;15.63;8.85;;;-4.00;99.90;;;;;;5030497;28;20033;-64
2022/12/15 02:22:46;;;;;;;14.13;8.15;;;-4.00;99.90;;;;;;5029416;28;20036;-64
2022/12/15 02:25:43;;;;;;;16.25;8.00;;;-3.90;99.90;;;;;;5028191;28;20029;-64
2022/12/15 02:28:21;;;;;;;13.23;7.22;;;-3.90;99.90;;;;;;5026294;28;20133;-64
2022/12/15 02:31:48;;;;;;;17.15;8.20;;;-3.80;99.90;;;;;;5028818;28;20053;-64
2022/12/15 02:33:44;;;;;;;15.02;7.20;;;-3.80;99.90;;;;;;5026235;28;20053;-63
2022/12/15 02:36:25;;;;;;;18.05;8.63;;;-3.90;99.90;;;;;;5027422;28;20108;-63
2022/12/15 02:38:50;;;;;;;21.80;11.10;;;-3.90;99.90;;;;;;5026463;28;20033;-64
2022/12/15 02:41:50;;;;;;;21.02;11.00;;;-4.00;99.90;;;;;;5028360;28;20021;-64
2022/12/15 02:44:29;;;;;;;24.45;11.25;;;-4.00;99.90;;;;;;5004426;28;20053;-63
2022/12/15 02:47:12;;;;;;;19.85;10.85;;;-4.00;99.90;;;;;;5026166;28;20108;-64
2022/12/15 02:50:03;;;;;;;22.58;11.68;;;-4.00;99.90;;;;;;5025820;28;20056;-64
2022/12/15 02:52:58;;;;;;;29.30;12.40;;;-4.10;99.90;;;;;;5026714;28;20029;-64
2022/12/15 02:55:38;;;;;;;25.30;12.32;;;-4.10;99.90;;;;;;5024340;28;20123;-64
2022/12/15 02:58:17;;;;;;;22.10;12.25;;;-4.10;99.90;;;;;;5029240;28;20053;-64
2022/12/15 03:00:49;;;;;;;25.57;12.60;;;-4.10;99.90;;;;;;5027788;28;20022;-63
2022/12/15 03:03:19;;;;;;;24.63;12.68;;;-4.10;99.90;;;;;;5024346;28;20276;-64
2022/12/15 03:05:53;;;;;;;20.58;12.13;;;-4.20;99.90;;;;;;5029124;28;20064;-64
2022/12/15 03:08:19;;;;;;;21.60;11.52;;;-4.10;99.90;;;;;;5027253;28;20029;-64
2022/12/15 03:10:47;;;;;;;20.70;11.90;;;-4.10;99.90;;;;;;5027688;28;20036;-64
2022/12/15 03:13:13;;;;;;;21.33;12.00;;;-4.10;99.90;;;;;;5025795;28;20025;-63
2022/12/15 03:15:38;;;;;;;20.00;11.43;;;-4.10;99.90;;;;;;5027170;28;20063;-64
2022/12/15 03:18:04;;;;;;;21.83;11.63;;;-4.10;99.90;;;;;;5024942;28;20025;-64
2022/12/15 03:20:30;;;;;;;20.05;11.48;;;-4.10;99.90;;;;;;5025055;28;20340;-64
2022/12/15 03:22:55;;;;;;;24.75;11.60;;;-4.10;99.90;;;;;;5028035;28;20029;-63
2022/12/15 03:25:21;;;;;;;19.17;10.88;;;-4.10;99.90;;;;;;5026697;28;20366;-63
2022/12/15 03:27:46;;;;;;;19.52;11.02;;;-4.10;99.90;;;;;;5024488;28;20029;-64
2022/12/15 03:30:12;;;;;;;20.55;10.77;;;-4.10;99.90;;;;;;5027411;28;20030;-64
2022/12/15 03:32:38;;;;;;;15.40;9.05;;;-4.00;99.90;;;;;;5027527;28;20391;-62
2022/12/15 03:35:04;;;;;;;16.80;9.50;;;-4.00;99.90;;;;;;5025166;28;20112;-63
2022/12/15 03:37:29;;;;;;;18.85;9.95;;;-4.00;99.90;;;;;;5024816;28;20481;-64
2022/12/15 03:39:56;;;;;;;23.63;12.27;;;-4.00;99.90;;;;;;5027173;28;20091;-64
2022/12/15 03:42:47;;;;;;;29.92;14.20;;;-4.00;99.90;;;;;;5025049;28;20020;-63
2022/12/15 03:45:07;;;;;;;26.67;13.70;;;-4.20;99.90;;;;;;5025938;28;20146;-64
2022/12/15 03:47:33;;;;;;;24.48;13.75;;;-4.20;99.90;;;;;;5025687;28;20018;-64
2022/12/15 03:49:58;;;;;;;26.88;14.43;;;-4.30;99.90;;;;;;5027492;28;20031;-63
2022/12/15 03:52:24;;;;;;;22.77;13.27;;;-4.40;99.90;;;;;;5028680;28;20497;-64
2022/12/15 03:54:50;;;;;;;22.08;12.40;;;-4.40;99.90;;;;;;5026326;28;20057;-64
2022/12/15 03:57:15;;;;;;;18.92;10.80;;;-4.40;99.90;;;;;;5025940;28;20021;-66
2022/12/15 03:59:41;;;;;;;21.10;12.35;;;-4.40;99.90;;;;;;5023472;28;20100;-64
2022/12/15 04:02:10;;;;;;;26.17;13.88;;;-4.40;99.90;;;;;;5026437;28;20108;-64
2022/12/15 04:04:36;;;;;;;20.05;12.07;;;-4.40;99.90;;;;;;5026564;28;20481;-64
2022/12/15 04:07:01;;;;;;;20.65;11.82;;;-4.30;99.90;;;;;;5026289;28;20107;-64
2022/12/15 04:09:27;;;;;;;21.00;12.45;;;-4.30;99.90;;;;;;5027473;28;20083;-64
2022/12/15 04:11:52;;;;;;;25.30;13.85;;;-4.30;99.90;;;;;;5027031;28;20037;-64
2022/12/15 04:14:18;;;;;;;28.17;15.05;;;-4.30;99.90;;;;;;5025121;28;20576;-64
2022/12/15 04:16:43;;;;;;;28.40;15.10;;;-4.40;99.90;;;;;;5025836;28;20021;-64
2022/12/15 04:21:53;;;;;;;29.38;15.85;;;-4.50;99.90;;;;;;5027078;28;20108;-64
2022/12/15 05:32:41;;;;;;;25.65;15.18;;;-4.90;99.90;;;;;;5027747;28;20139;-63
2022/12/15 05:35:07;;;;;;;33.92;17.65;;;-4.80;99.90;;;;;;5030307;28;20048;-63
2022/12/15 05:37:32;;;;;;;28.00;16.98;;;-4.80;99.90;;;;;;5028181;28;20030;-63
2022/12/15 05:39:58;;;;;;;30.92;16.58;;;-4.70;99.90;;;;;;5028690;28;20025;-64
2022/12/15 05:42:23;;;;;;;34.90;17.85;;;-4.70;99.90;;;;;;5026609;28;20022;-64
2022/12/15 05:44:49;;;;;;;34.95;18.30;;;-4.70;99.90;;;;;;5029679;28;20496;-63
2022/12/15 05:47:14;;;;;;;30.48;16.15;;;-4.80;99.90;;;;;;5029131;28;20041;-63
2022/12/15 05:49:40;;;;;;;33.42;17.00;;;-4.80;99.90;;;;;;5028804;28;20029;-64
2022/12/15 05:52:05;;;;;;;26.42;15.45;;;-4.80;99.90;;;;;;5027714;28;20470;-64
2022/12/15 05:54:34;;;;;;;25.90;15.27;;;-4.70;99.90;;;;;;5030223;28;20053;-63
2022/12/15 05:57:00;;;;;;;27.63;14.70;;;-4.70;99.90;;;;;;5026837;28;20030;-64
2022/12/15 05:59:25;;;;;;;30.48;17.40;;;-4.70;99.90;;;;;;5028629;28;20033;-63
2022/12/15 06:01:51;;;;;;;36.33;19.92;;;-4.70;99.90;;;;;;5029078;28;20100;-64
2022/12/15 06:04:16;;;;;;;34.75;18.90;;;-4.70;99.90;;;;;;5026014;28;20036;-63
2022/12/15 06:06:42;;;;;;;33.05;18.13;;;-4.70;99.90;;;;;;5027709;28;20025;-64
2022/12/15 06:09:08;;;;;;;35.75;18.75;;;-4.70;99.90;;;;;;5028507;28;20432;-63
2022/12/15 06:11:34;;;;;;;32.58;18.38;;;-4.80;99.90;;;;;;5030179;28;20107;-64
2022/12/15 06:13:59;;;;;;;35.55;18.48;;;-4.80;99.90;;;;;;5025238;28;20021;-64
2022/12/15 06:16:26;;;;;;;30.45;16.65;;;-4.80;99.90;;;;;;5029181;28;20109;-63
2022/12/15 06:18:55;;;;;;;32.15;18.00;;;-4.70;99.90;;;;;;5018119;28;20029;-64
2022/12/15 06:21:26;;;;;;;28.10;16.65;;;-4.70;99.90;;;;;;5022828;28;20021;-63
2022/12/15 06:23:53;;;;;;;32.90;17.80;;;-4.70;99.90;;;;;;5018604;28;20030;-63
2022/12/15 06:26:21;;;;;;;31.75;18.00;;;-4.70;99.90;;;;;;5018814;28;20026;-63
2022/12/15 06:28:47;;;;;;;38.05;19.25;;;-4.70;99.90;;;;;;5026324;28;20049;-63
2022/12/15 06:31:14;;;;;;;34.53;18.77;;;-4.80;99.90;;;;;;5019547;28;20034;-64
2022/12/15 06:33:40;;;;;;;34.40;18.92;;;-4.80;99.90;;;;;;5013734;28;20050;-63
2022/12/15 06:36:12;;;;;;;37.42;19.77;;;-4.80;99.90;;;;;;5014379;28;20038;-63
2022/12/15 06:38:38;;;;;;;32.70;17.70;;;-4.80;99.90;;;;;;5013753;28;20134;-63
2022/12/15 06:41:05;;;;;;;36.75;18.38;;;-4.80;99.90;;;;;;5014490;28;20025;-63
2022/12/15 06:43:32;;;;;;;28.58;16.02;;;-4.80;99.90;;;;;;5028695;28;20026;-63
2022/12/15 06:45:58;;;;;;;25.75;14.60;;;-4.70;99.90;;;;;;5021370;28;20164;-63
2022/12/15 06:48:24;;;;;;;39.67;20.05;;;-4.70;99.90;;;;;;5030823;28;20436;-63
2022/12/15 06:50:50;;;;;;;36.65;19.60;;;-4.80;99.90;;;;;;5025511;28;20113;-63
2022/12/15 06:53:18;;;;;;;31.05;18.27;;;-4.80;99.90;;;;;;5025312;28;20049;-63
2022/12/15 06:55:44;;;;;;;40.22;20.48;;;-4.90;99.90;;;;;;5026282;28;20054;-63
2022/12/15 06:58:11;;;;;;;33.45;19.27;;;-4.90;99.90;;;;;;5029313;28;20021;-63
2022/12/15 07:00:37;;;;;;;36.80;18.35;;;-4.90;99.90;;;;;;5027321;28;20072;-63
2022/12/15 07:03:05;;;;;;;36.60;19.55;;;-4.90;99.90;;;;;;5035381;28;20465;-63
2022/12/15 07:05:30;;;;;;;36.05;19.40;;;-4.90;99.90;;;;;;5026995;28;20064;-63
2022/12/15 07:07:56;;;;;;;43.65;20.05;;;-4.90;99.90;;;;;;5037633;28;20124;-63
2022/12/15 07:10:21;;;;;;;35.42;19.00;;;-4.90;99.90;;;;;;5038498;28;20037;-63
2022/12/15 07:12:47;;;;;;;39.20;19.08;;;-5.00;99.90;;;;;;5029809;28;20017;-63
2022/12/15 07:15:13;;;;;;;38.80;20.17;;;-5.10;99.90;;;;;;5028971;28;20501;-63
2022/12/15 07:17:39;;;;;;;39.83;20.33;;;-5.20;99.90;;;;;;5035512;28;20023;-63
2022/12/15 07:20:05;;;;;;;43.35;19.92;;;-5.30;99.90;;;;;;5030266;28;20018;-63
2022/12/15 07:22:31;;;;;;;34.10;18.75;;;-5.30;99.90;;;;;;5029557;28;20085;-63
2022/12/15 07:24:56;;;;;;;39.28;19.90;;;-5.20;99.90;;;;;;5032122;28;20034;-63
2022/12/15 07:27:22;;;;;;;37.05;21.08;;;-5.20;99.90;;;;;;5031227;28;20029;-63
2022/12/15 07:29:48;;;;;;;41.70;20.45;;;-5.20;99.90;;;;;;5041907;28;20022;-63
2022/12/15 07:32:14;;;;;;;37.45;20.40;;;-5.20;99.90;;;;;;5036333;28;20124;-63
2022/12/15 07:34:43;;;;;;;40.22;20.40;;;-5.20;99.90;;;;;;5044230;28;20494;-63
2022/12/15 07:37:08;;;;;;;38.70;20.90;;;-5.30;99.90;;;;;;5047694;28;20103;-63
2022/12/15 07:39:34;;;;;;;45.60;22.50;;;-5.30;99.90;;;;;;5041240;28;20097;-63
2022/12/15 07:41:59;;;;;;;46.53;23.25;;;-5.30;99.90;;;;;;5046701;28;20029;-63
2022/12/15 07:44:25;;;;;;;39.75;21.77;;;-5.30;99.90;;;;;;5044050;28;20044;-63
2022/12/15 07:46:51;;;;;;;49.03;22.92;;;-5.40;99.90;;;;;;5038216;28;20029;-63
2022/12/15 07:49:17;;;;;;;48.20;24.17;;;-5.40;99.90;;;;;;5023154;28;20025;-63
2022/12/15 07:51:43;;;;;;;42.30;24.13;;;-5.50;99.90;;;;;;5024989;28;20037;-63
2022/12/15 07:54:13;;;;;;;41.03;21.13;;;-5.40;99.90;;;;;;5027092;28;20348;-63
2022/12/15 07:56:39;;;;;;;;;;;-5.50;99.90;;;;;;5020055;28;20026;-63
2022/12/15 07:59:05;;;;;;;44.65;22.17;;;-5.50;99.90;;;;;;5024139;28;19909;-64
2022/12/15 08:01:31;;;;;;;48.30;23.75;;;-5.50;99.90;;;;;;5029500;28;20268;-63
2022/12/15 08:03:57;;;;;;;42.00;23.52;;;-5.50;99.90;;;;;;5028416;28;20104;-64
2022/12/15 08:06:23;;;;;;;43.42;22.38;;;-5.50;99.90;;;;;;5021930;28;20041;-63
2022/12/15 08:08:49;;;;;;;45.45;24.23;;;-5.40;99.90;;;;;;5026643;28;20104;-63
2022/12/15 08:11:15;;;;;;;47.83;23.63;;;-5.40;99.90;;;;;;5020196;28;20026;-63
2022/12/15 08:13:42;;;;;;;45.58;23.35;;;-5.40;99.90;;;;;;5029903;28;20091;-63
2022/12/15 08:16:08;;;;;;;46.47;24.23;;;-5.40;99.90;;;;;;5023244;28;20482;-63
2022/12/15 08:18:34;;;;;;;41.80;23.67;;;-5.40;99.90;;;;;;5021907;28;20084;-64
2022/12/15 08:21:04;;;;;;;42.83;24.20;;;-5.30;99.90;;;;;;5018297;28;20029;-64
2022/12/15 08:23:30;;;;;;;40.78;23.35;;;-5.30;99.90;;;;;;5023803;28;20064;-63
2022/12/15 08:26:06;;;;;;;50.60;24.42;;;-5.30;99.90;;;;;;5023468;28;20069;-63
2022/12/15 08:28:33;;;;;;;47.95;24.73;;;-5.30;99.90;;;;;;5024162;28;20021;-64
2022/12/15 08:31:16;;;;;;;42.95;23.10;;;-5.20;99.90;;;;;;5017495;28;20527;-63
2022/12/15 08:33:42;;;;;;;41.60;23.10;;;-5.20;99.90;;;;;;5023533;28;20070;-63
2022/12/15 08:36:10;;;;;;;42.40;24.25;;;-5.20;99.90;;;;;;5010304;28;20033;-63
2022/12/15 08:38:37;;;;;;;42.70;23.63;;;-5.10;99.90;;;;;;5010662;28;20022;-63
2022/12/15 08:41:13;;;;;;;47.05;25.40;;;-5.00;99.90;;;;;;5010306;28;20033;-63
2022/12/15 08:43:39;;;;;;;42.50;23.95;;;-4.90;99.90;;;;;;5010383;28;20028;-63
2022/12/15 08:46:05;;;;;;;44.97;25.67;;;-4.90;99.90;;;;;;5010161;28;20021;-63
2022/12/15 08:48:31;;;;;;;48.25;26.40;;;-4.80;99.90;;;;;;5020421;28;20022;-63
2022/12/15 08:50:57;;;;;;;50.75;27.40;;;-4.80;99.90;;;;;;5015156;28;20473;-63
2022/12/15 08:53:24;;;;;;;49.42;26.17;;;-4.70;99.90;;;;;;5020419;28;20014;-63
2022/12/15 08:55:49;;;;;;;54.40;26.58;;;-4.70;99.90;;;;;;5015317;28;20025;-63
2022/12/15 08:58:15;;;;;;;53.95;27.90;;;-4.60;99.90;;;;;;5012999;28;20587;-63
2022/12/15 09:00:40;;;;;;;50.05;27.90;;;-4.50;99.90;;;;;;5014215;28;20022;-63
2022/12/15 09:03:06;;;;;;;50.10;27.15;;;-4.50;99.90;;;;;;5010879;28;20034;-63
2022/12/15 09:05:36;;;;;;;49.42;27.27;;;-4.40;99.90;;;;;;5021674;28;20079;-63
2022/12/15 09:08:02;;;;;;;52.40;26.67;;;-4.40;99.90;;;;;;5018100;28;20080;-63
2022/12/15 09:10:28;;;;;;;53.92;28.40;;;-4.30;99.90;;;;;;5020341;28;20041;-63
2022/12/15 09:12:53;;;;;;;46.83;25.88;;;-4.30;99.90;;;;;;5019851;28;20049;-63
2022/12/15 09:15:19;;;;;;;52.50;26.50;;;-4.20;99.90;;;;;;5017790;28;20041;-63
2022/12/15 09:17:46;;;;;;;51.40;27.35;;;-4.20;99.90;;;;;;5025939;28;20021;-63
2022/12/15 09:20:13;;;;;;;51.08;27.02;;;-4.10;99.90;;;;;;5014738;28;20026;-63
2022/12/15 09:22:39;;;;;;;51.55;28.02;;;-4.00;99.90;;;;;;5014204;28;20101;-63
2022/12/15 09:25:05;;;;;;;51.30;26.55;;;-3.90;99.90;;;;;;5009776;28;20056;-63
2022/12/15 09:27:30;;;;;;;55.75;29.75;;;-3.80;99.90;;;;;;5023374;28;20022;-63
2022/12/15 09:29:56;;;;;;;60.55;29.75;;;-3.80;99.90;;;;;;5014428;28;20949;-63
2022/12/15 09:32:22;;;;;;;44.63;26.60;;;-3.70;99.90;;;;;;5031298;28;20074;-63
2022/12/15 09:34:50;;;;;;;40.67;23.88;;;-3.60;99.90;;;;;;5033865;28;20121;-63
2022/12/15 09:37:16;;;;;;;45.33;24.52;;;-3.40;99.90;;;;;;5048204;28;20082;-63
2022/12/15 09:39:41;;;;;;;54.90;28.08;;;-3.30;99.90;;;;;;5021487;28;20079;-63
2022/12/15 09:42:36;;;;;;;48.00;27.02;;;-3.20;99.90;;;;;;5032972;28;20033;-63
2022/12/15 09:45:18;;;;;;;43.83;24.30;;;-3.00;99.90;;;;;;5025575;28;20045;-63
2022/12/15 09:47:50;;;;;;;43.53;23.85;;;-2.80;99.90;;;;;;5026222;28;20504;-63
2022/12/15 09:50:18;;;;;;;39.55;24.50;;;-2.60;99.90;;;;;;5040565;28;20740;-63
2022/12/15 09:52:46;;;;;;;48.33;26.15;;;-2.20;99.90;;;;;;5037513;28;20029;-62
2022/12/15 09:55:29;;;;;;;50.80;28.30;;;-1.70;99.90;;;;;;5052846;28;20321;-63
2022/12/15 09:58:06;;;;;;;47.95;25.67;;;-1.50;99.90;;;;;;5036396;28;20473;-63
2022/12/15 10:00:57;;;;;;;44.13;24.85;;;-1.40;99.90;;;;;;5026572;28;20022;-63
2022/12/15 10:04:00;;;;;;;43.45;24.40;;;-1.10;99.90;;;;;;5024026;28;20096;-66
2022/12/15 10:06:43;;;;;;;40.08;24.80;;;-0.70;99.90;;;;;;5056633;28;20033;-65
2022/12/15 10:09:29;;;;;;;38.28;23.85;;;-0.40;99.90;;;;;;5040693;28;20029;-65
2022/12/15 10:12:00;;;;;;;42.50;24.50;;;0.10;99.90;;;;;;5043834;28;20451;-63
2022/12/15 10:14:48;;;;;;;34.90;20.85;;;0.50;99.90;;;;;;5045112;28;20499;-63
2022/12/15 10:17:31;;;;;;;41.30;24.35;;;1.20;99.90;;;;;;5030936;28;20574;-63
2022/12/15 10:20:05;;;;;;;38.50;24.10;;;1.40;99.90;;;;;;5023261;28;20425;-63
2022/12/15 10:22:36;;;;;;;32.33;20.40;;;1.30;99.10;;;;;;5028204;28;20474;-63
2022/12/15 10:25:26;;;;;;;38.13;21.85;;;1.70;99.10;;;;;;5008924;28;20076;-64
2022/12/15 10:28:14;;;;;;;39.42;25.35;;;1.90;98.20;;;;;;5023691;28;20074;-63
2022/12/15 10:30:50;;;;;;;33.45;21.95;;;1.90;97.50;;;;;;5015664;28;20038;-63
2022/12/15 10:33:23;;;;;;;38.65;22.38;;;2.20;97.10;;;;;;5017538;28;20049;-63
2022/12/15 10:35:52;;;;;;;41.88;23.95;;;2.10;95.60;;;;;;5024606;28;20026;-63
2022/12/15 10:38:25;;;;;;;32.78;21.38;;;2.00;95.20;;;;;;5031644;28;20024;-63
2022/12/15 10:40:57;;;;;;;38.50;22.80;;;2.00;95.10;;;;;;5035516;28;20044;-63
2022/12/15 10:43:29;;;;;;;35.50;21.80;;;2.00;95.40;;;;;;5027023;28;20022;-63
2022/12/15 10:46:17;;;;;;;39.10;22.35;;;2.30;95.70;;;;;;5027082;28;20030;-63
2022/12/15 10:48:48;;;;;;;38.40;22.55;;;2.70;95.10;;;;;;5028951;28;20027;-63
2022/12/15 10:51:25;;;;;;;35.97;22.38;;;2.80;94.40;;;;;;5032654;28;20053;-64
2022/12/15 10:54:12;;;;;;;34.83;22.13;;;3.00;93.80;;;;;;5034357;28;20108;-63
2022/12/15 10:56:58;;;;;;;33.03;21.50;;;3.40;93.40;;;;;;5022326;28;20096;-63
2022/12/15 10:59:25;;;;;;;34.35;21.00;;;3.80;92.50;;;;;;5027602;28;20028;-63
2022/12/15 11:01:51;;;;;;;33.38;21.48;;;3.70;91.90;;;;;;5020931;28;20026;-62
2022/12/15 11:04:27;;;;;;;39.72;23.25;;;3.40;91.60;;;;;;5020525;28;20026;-63
2022/12/15 11:07:00;;;;;;;31.83;20.92;;;3.20;91.80;;;;;;5025823;28;20021;-63
2022/12/15 11:09:35;;;;;;;36.63;22.02;;;3.30;92.50;;;;;;5021597;28;20037;-63
2022/12/15 11:14:59;;;;;;;31.55;20.73;;;4.40;91.60;;;;;;5014109;28;20037;-63
2022/12/15 11:17:35;;;;;;;35.85;23.75;;;4.70;90.90;;;;;;5022975;28;20026;-63
2022/12/15 11:20:11;;;;;;;37.80;23.98;;;4.60;89.30;;;;;;5013673;28;20018;-63
2022/12/15 11:22:55;;;;;;;36.50;23.67;;;4.30;87.40;;;;;;5011584;28;20025;-63
2022/12/15 11:25:42;;;;;;;37.60;23.73;;;4.10;88.60;;;;;;5011457;28;20052;-63
2022/12/15 11:28:19;;;;;;;40.13;23.35;;;4.30;89.40;;;;;;5017564;28;20026;-63
2022/12/15 11:30:51;;;;;;;35.65;22.30;;;4.50;87.40;;;;;;5019417;28;20025;-63
2022/12/15 11:33:16;;;;;;;38.35;23.80;;;4.50;88.40;;;;;;5022132;28;20513;-63
2022/12/15 11:35:44;;;;;;;35.90;23.10;;;4.60;86.50;;;;;;5017608;28;20037;-63
2022/12/15 11:38:35;;;;;;;34.47;22.75;;;4.70;86.00;;;;;;5038727;28;20021;-63
2022/12/15 11:41:16;;;;;;;36.33;22.30;;;4.80;85.70;;;;;;5023197;28;20048;-63
2022/12/15 11:44:19;;;;;;;32.83;21.70;;;5.40;85.50;;;;;;5027517;28;20025;-63
2022/12/15 11:46:58;;;;;;;39.00;23.48;;;6.20;84.50;;;;;;5021643;28;20035;-63
2022/12/15 11:50:00;;;;;;;36.13;23.90;;;6.60;79.10;;;;;;5032312;28;20021;-63
2022/12/15 11:52:31;;;;;;;34.88;21.73;;;7.10;77.50;;;;;;5021057;28;20032;-63
2022/12/15 11:55:22;;;;;;;31.05;21.50;;;8.10;75.70;;;;;;5016639;28;20025;-63
2022/12/15 11:58:20;;;;;;;34.95;22.52;;;8.90;70.80;;;;;;5017250;28;20417;-63
2022/12/15 12:01:17;;;;;;;32.67;22.60;;;9.10;65.90;;;;;;5013490;28;20053;-64
2022/12/15 12:04:21;;;;;;;29.63;20.08;;;9.20;65.70;;;;;;5028095;28;20026;-62
2022/12/15 12:06:56;;;;;;;30.50;20.80;;;9.50;64.90;;;;;;5024878;28;20022;-63
2022/12/15 12:09:33;;;;;;;31.52;21.60;;;9.70;62.60;;;;;;5032920;28;20079;-63
2022/12/15 12:12:28;;;;;;;29.35;20.80;;;9.60;62.50;;;;;;5021945;28;20565;-63
2022/12/15 12:15:05;;;;;;;29.42;20.45;;;10.00;62.50;;;;;;5024187;28;20087;-63
2022/12/15 12:17:46;;;;;;;30.52;19.38;;;10.40;61.00;;;;;;5021030;28;20026;-63
2022/12/15 12:20:18;;;;;;;28.55;19.92;;;11.80;61.60;;;;;;5024203;28;20030;-63
2022/12/15 12:22:52;;;;;;;25.60;20.08;;;12.70;57.30;;;;;;5032317;28;20460;-63
2022/12/15 12:25:20;;;;;;;27.80;19.83;;;12.90;53.50;;;;;;5036014;28;20022;-63
2022/12/15 12:27:59;;;;;;;26.88;20.85;;;11.90;54.70;;;;;;5023359;28;20159;-64
2022/12/15 12:30:30;;;;;;;30.15;22.02;;;12.10;55.50;;;;;;5018901;28;20108;-64
2022/12/15 12:33:05;;;;;;;28.60;21.25;;;12.00;53.60;;;;;;5042273;28;20033;-63
2022/12/15 12:35:51;;;;;;;26.38;20.67;;;11.50;54.30;;;;;;5039699;28;20120;-63
2022/12/15 12:38:29;;;;;;;31.50;21.23;;;11.20;55.50;;;;;;5046285;28;20489;-63
2022/12/15 12:41:07;;;;;;;30.27;20.65;;;10.90;54.80;;;;;;5043983;28;20017;-64
2022/12/15 12:43:51;;;;;;;27.50;20.13;;;10.60;55.90;;;;;;5049807;28;20017;-64
2022/12/15 12:46:27;;;;;;;27.17;20.63;;;10.60;57.00;;;;;;5045308;28;20033;-64
2022/12/15 12:49:21;;;;;;;22.98;17.00;;;11.30;56.00;;;;;;5058540;28;20071;-63
2022/12/15 12:51:52;;;;;;;26.27;19.40;;;11.70;55.90;;;;;;5050047;28;20029;-63
2022/12/15 12:54:35;;;;;;;24.90;17.88;;;11.60;54.60;;;;;;5042603;28;20028;-63
2022/12/15 12:57:33;;;;;;;27.50;19.88;;;10.70;56.00;;;;;;5032064;28;20025;-63
2022/12/15 13:00:26;;;;;;;27.33;19.85;;;10.00;57.20;;;;;;5029355;28;20079;-63
2022/12/15 13:02:52;;;;;;;31.15;21.63;;;8.80;59.60;;;;;;5018472;28;20018;-63
2022/12/15 13:05:36;;;;;;;32.80;22.75;;;7.70;61.70;;;;;;5043372;28;20126;-63
2022/12/15 13:08:04;;;;;;;28.35;20.63;;;6.90;64.80;;;;;;5040793;28;20396;-63
2022/12/15 13:10:35;;;;;;;29.73;19.58;;;6.40;67.10;;;;;;5016910;28;20014;-63
2022/12/15 13:13:40;;;;;;;30.90;21.45;;;6.10;68.20;;;;;;5011489;28;20026;-63
2022/12/15 13:16:23;;;;;;;28.25;20.48;;;6.00;69.30;;;;;;5011540;28;20084;-63
2022/12/15 13:18:57;;;;;;;37.38;21.85;;;5.90;70.50;;;;;;5010901;28;20482;-63
2022/12/15 13:21:44;;;;;;;33.83;22.88;;;5.90;70.10;;;;;;5026997;28;20032;-63
2022/12/15 13:24:28;;;;;;;36.22;21.50;;;5.40;71.20;;;;;;5035675;28;20029;-63
2022/12/15 13:27:10;;;;;;;30.42;21.83;;;5.00;73.60;;;;;;5026379;28;20045;-63
2022/12/15 13:29:53;;;;;;;31.48;21.75;;;4.70;74.50;;;;;;5027451;28;20037;-63
2022/12/15 13:32:26;;;;;;;28.73;20.58;;;4.70;75.60;;;;;;5026305;28;20039;-63
2022/12/15 13:34:51;;;;;;;29.67;19.42;;;4.70;75.60;;;;;;5016025;28;20060;-63
2022/12/15 13:37:46;;;;;;;32.45;20.30;;;4.80;75.30;;;;;;5015197;28;20402;-63
2022/12/15 13:40:33;;;;;;;31.00;22.48;;;5.00;75.30;;;;;;5030928;28;20116;-63
2022/12/15 13:43:05;;;;;;;34.05;20.98;;;4.60;76.20;;;;;;5022010;28;20033;-63
2022/12/15 13:45:45;;;;;;;31.70;21.00;;;4.40;77.30;;;;;;5033864;28;20464;-63
2022/12/15 13:48:25;;;;;;;31.83;21.85;;;4.30;77.80;;;;;;5015221;28;20026;-63
2022/12/15 13:50:58;;;;;;;37.53;22.63;;;4.30;78.50;;;;;;5028294;28;20113;-63
2022/12/15 13:53:26;;;;;;;28.85;21.67;;;4.40;79.60;;;;;;5023275;28;20109;-63
2022/12/15 13:56:05;;;;;;;34.08;23.77;;;5.10;78.20;;;;;;5032492;28;20076;-63
2022/12/15 13:58:39;;;;;;;32.80;22.60;;;5.00;76.80;;;;;;5013743;28;21696;-63
2022/12/15 14:01:18;;;;;;;35.42;22.92;;;5.00;77.90;;;;;;5015891;28;20037;-63
2022/12/15 14:04:04;;;;;;;30.17;22.03;;;5.50;77.30;;;;;;5016104;28;20025;-63
2022/12/15 14:06:42;;;;;;;30.83;19.85;;;5.30;75.60;;;;;;5015313;28;20048;-63
2022/12/15 14:09:13;;;;;;;30.48;21.05;;;5.00;77.00;;;;;;5018579;28;20025;-63
2022/12/15 14:11:40;;;;;;;30.67;20.73;;;4.90;78.20;;;;;;5012930;28;20390;-63
2022/12/15 14:14:19;;;;;;;26.75;18.42;;;5.10;78.60;;;;;;5015311;28;20029;-63
2022/12/15 14:16:50;;;;;;;32.90;21.73;;;5.40;78.00;;;;;;5018134;28;20041;-63
2022/12/15 14:19:17;;;;;;;32.92;21.33;;;5.80;76.90;;;;;;5024135;28;20071;-63
2022/12/15 14:21:56;;;;;;;31.85;21.20;;;5.90;75.10;;;;;;5023313;28;20014;-64
2022/12/15 14:24:23;;;;;;;31.55;20.95;;;5.80;75.20;;;;;;5014952;28;20028;-63
2022/12/15 14:26:49;;;;;;;35.97;22.25;;;5.50;76.00;;;;;;5026269;28;20045;-63
2022/12/15 14:29:16;;;;;;;36.25;22.65;;;5.00;76.90;;;;;;5024674;28;20368;-64
2022/12/15 14:31:55;;;;;;;32.72;23.15;;;4.70;78.30;;;;;;5021058;28;20026;-63
2022/12/15 14:34:37;;;;;;;31.58;22.65;;;4.60;79.10;;;;;;5030907;28;20045;-64
2022/12/15 14:37:09;;;;;;;36.95;23.60;;;4.20;80.10;;;;;;5041789;28;20029;-63
2022/12/15 14:39:43;;;;;;;42.53;23.15;;;3.70;81.50;;;;;;5041975;28;20474;-63
2022/12/15 14:42:17;;;;;;;36.53;24.33;;;3.60;83.40;;;;;;5039859;28;20061;-63
2022/12/15 14:44:45;;;;;;;37.33;24.67;;;3.40;84.80;;;;;;5013555;28;20021;-63
2022/12/15 14:47:22;;;;;;;36.78;23.38;;;3.30;85.10;;;;;;5012266;28;20022;-63
2022/12/15 14:49:57;;;;;;;40.75;25.23;;;3.20;85.80;;;;;;5027232;28;20070;-64
2022/12/15 14:52:31;;;;;;;39.38;25.63;;;3.10;86.40;;;;;;5014193;28;20041;-63
2022/12/15 14:55:00;;;;;;;35.47;23.27;;;2.90;87.20;;;;;;5020198;28;20036;-65
2022/12/15 14:57:45;;;;;;;37.50;23.83;;;2.70;88.80;;;;;;5013573;28;20014;-65
2022/12/15 15:00:33;;;;;;;38.00;25.05;;;2.50;89.40;;;;;;5015123;28;20521;-65
2022/12/15 15:03:14;;;;;;;36.00;23.50;;;2.30;90.50;;;;;;5015567;28;20137;-63
2022/12/15 15:05:44;;;;;;;38.10;24.73;;;2.20;91.20;;;;;;5025110;28;20055;-63
2022/12/15 15:08:34;;;;;;;40.92;24.02;;;2.10;91.80;;;;;;5012405;28;20053;-63
2022/12/15 15:11:20;;;;;;;39.92;23.80;;;2.10;92.20;;;;;;5021971;28;20045;-63
2022/12/15 15:13:46;;;;;;;38.42;23.60;;;2.00;92.70;;;;;;5014544;28;20057;-63
2022/12/15 15:16:16;;;;;;;35.45;22.45;;;2.00;93.20;;;;;;5014824;28;20028;-65
2022/12/15 15:18:43;;;;;;;39.25;23.83;;;2.00;93.40;;;;;;5022984;28;20018;-64
2022/12/15 15:21:16;;;;;;;39.05;25.38;;;2.00;93.60;;;;;;5018024;28;20021;-63
2022/12/15 15:23:41;;;;;;;36.35;24.45;;;2.00;93.80;;;;;;5018315;28;20014;-63